Time;durP1;ratioP1;P1;durP2;ratioP2;P2;SDS_P1;SDS_P2;PMS_P1;PMS_P2;Temp;Humidity;BMP_temperature;BMP_pressure;BME280_temperature;BME280_humidity;BME280_pressure;Samples;Min_cycle;Max_cycle;Signal;HPM_P1;HPM_P2
2022/05/14 00:00:43;;;;;;;11.07;6.30;;;12.70;99.90;;;;;;5055478;28;20461;-77
2022/05/14 00:03:10;;;;;;;11.50;5.83;;;12.60;99.90;;;;;;5056986;28;20541;-78
2022/05/14 00:05:38;;;;;;;8.00;5.20;;;12.60;99.90;;;;;;5056342;28;20547;-78
2022/05/14 00:08:06;;;;;;;10.63;5.10;;;12.60;99.90;;;;;;5064823;28;20460;-79
2022/05/14 00:13:03;;;;;;;8.27;4.33;;;12.50;99.90;;;;;;5061595;28;20467;-79
2022/05/14 00:13:19;;;;;;;8.20;4.80;;;12.40;99.90;;;;;;5055792;28;20443;-79
2022/05/14 00:15:46;;;;;;;10.00;5.40;;;12.40;99.90;;;;;;5055152;28;20444;-79
2022/05/14 00:18:13;;;;;;;9.40;5.23;;;12.40;99.90;;;;;;5045484;28;20843;-79
2022/05/14 00:20:42;;;;;;;10.90;5.27;;;12.30;99.90;;;;;;5054354;28;20466;-78
2022/05/14 00:23:09;;;;;;;8.80;4.10;;;12.30;99.90;;;;;;5071923;28;20483;-78
2022/05/14 00:25:37;;;;;;;8.27;4.60;;;12.30;99.90;;;;;;5062384;28;20461;-79
2022/05/14 00:28:06;;;;;;;10.10;4.80;;;12.20;99.90;;;;;;5054884;28;20463;-78
2022/05/14 00:30:33;;;;;;;10.60;4.50;;;12.20;99.90;;;;;;5054929;28;20833;-79
2022/05/14 00:33:00;;;;;;;10.77;4.80;;;12.20;99.90;;;;;;5054990;28;20542;-78
2022/05/14 00:35:28;;;;;;;5.93;3.70;;;12.20;99.90;;;;;;5056718;28;20481;-78
2022/05/14 00:37:56;;;;;;;13.90;4.93;;;12.10;99.90;;;;;;5071670;28;20493;-78
2022/05/14 00:40:27;;;;;;;9.53;5.37;;;12.10;99.90;;;;;;5056904;28;20453;-77
2022/05/14 00:42:54;;;;;;;8.30;4.87;;;12.10;99.90;;;;;;5057405;28;20526;-78
2022/05/14 00:45:22;;;;;;;8.37;4.57;;;12.00;99.90;;;;;;5057912;28;20486;-78
2022/05/14 00:47:52;;;;;;;8.67;4.43;;;12.00;99.90;;;;;;5057187;28;20453;-78
2022/05/14 00:50:24;;;;;;;9.87;4.77;;;12.00;99.90;;;;;;5063868;28;20465;-78
2022/05/14 00:52:55;;;;;;;6.57;4.30;;;11.90;99.90;;;;;;5065945;28;20546;-79
2022/05/14 00:55:24;;;;;;;10.03;5.73;;;11.90;99.90;;;;;;5053356;28;20581;-79
2022/05/14 00:57:51;;;;;;;8.43;4.33;;;11.90;99.90;;;;;;5051312;28;20457;-79
2022/05/14 01:00:21;;;;;;;7.77;4.57;;;11.80;99.90;;;;;;5055755;28;20469;-78
2022/05/14 01:02:48;;;;;;;10.53;4.23;;;11.80;99.90;;;;;;5055641;28;20489;-78
2022/05/14 01:05:18;;;;;;;10.00;4.20;;;11.80;99.90;;;;;;5070546;28;20477;-79
2022/05/14 01:07:47;;;;;;;9.70;5.20;;;11.70;99.90;;;;;;5067590;28;20584;-78
2022/05/14 01:10:16;;;;;;;10.60;5.33;;;11.70;99.90;;;;;;5056314;28;20453;-78
2022/05/14 01:12:50;;;;;;;13.60;5.03;;;11.70;99.90;;;;;;5055696;28;20449;-79
2022/05/14 01:15:20;;;;;;;10.77;5.40;;;11.60;99.90;;;;;;5055287;28;20477;-79
2022/05/14 01:17:47;;;;;;;7.73;5.03;;;11.60;99.90;;;;;;5056842;28;20842;-79
2022/05/14 01:20:15;;;;;;;7.83;4.27;;;11.60;99.90;;;;;;5069536;28;20471;-78
2022/05/14 01:22:58;;;;;;;8.80;4.70;;;11.60;99.90;;;;;;5055615;28;21020;-78
2022/05/14 01:28:18;;;;;;;7.43;4.70;;;11.60;99.90;;;;;;5055566;28;20635;-77
2022/05/14 01:30:50;;;;;;;10.90;6.60;;;11.50;99.90;;;;;;5054709;28;20467;-78
2022/05/14 01:33:17;;;;;;;7.67;4.23;;;11.50;99.90;;;;;;5055535;28;20459;-78
2022/05/14 01:35:44;;;;;;;7.60;4.50;;;11.40;99.90;;;;;;5055188;28;20535;-78
2022/05/14 01:38:12;;;;;;;7.90;4.80;;;11.40;99.90;;;;;;5055808;28;20448;-77
2022/05/14 01:40:39;;;;;;;7.23;4.80;;;11.30;99.90;;;;;;5055184;28;20456;-78
2022/05/14 01:43:06;;;;;;;11.53;4.83;;;11.30;99.90;;;;;;5043924;28;20491;-78
2022/05/14 01:45:34;;;;;;;11.63;4.63;;;11.30;99.90;;;;;;5055485;28;20461;-78
2022/05/14 01:48:01;;;;;;;10.70;4.37;;;11.30;99.90;;;;;;5072373;28;20549;-79
2022/05/14 01:50:28;;;;;;;6.77;4.60;;;11.30;99.90;;;;;;5074120;28;20448;-78
2022/05/14 01:52:55;;;;;;;9.20;4.73;;;11.30;99.90;;;;;;5056851;28;20459;-77
2022/05/14 01:55:22;;;;;;;7.83;4.50;;;11.30;99.90;;;;;;5034915;28;20477;-78
2022/05/14 01:57:49;;;;;;;7.80;5.07;;;11.30;99.90;;;;;;5051470;28;20465;-79
2022/05/14 02:00:17;;;;;;;9.10;4.53;;;11.40;99.90;;;;;;5055794;28;20483;-78
2022/05/14 02:02:46;;;;;;;10.77;4.57;;;11.30;99.90;;;;;;5058972;28;20932;-78
2022/05/14 02:05:12;;;;;;;5.37;4.87;;;11.30;99.90;;;;;;5054154;28;20480;-79
2022/05/14 02:07:39;;;;;;;6.53;4.17;;;11.30;99.90;;;;;;5054714;28;20484;-78
2022/05/14 02:10:07;;;;;;;6.60;4.67;;;11.30;99.90;;;;;;5054796;28;20499;-79
2022/05/14 02:12:34;;;;;;;8.60;4.83;;;11.30;99.90;;;;;;5058526;28;20980;-78
2022/05/14 02:15:01;;;;;;;7.10;4.37;;;11.30;99.90;;;;;;5064749;28;20479;-78
2022/05/14 02:17:27;;;;;;;7.73;4.60;;;11.30;99.90;;;;;;5078354;28;20451;-77
2022/05/14 02:19:56;;;;;;;6.70;4.73;;;11.20;99.90;;;;;;5070211;28;20450;-78
2022/05/14 02:22:23;;;;;;;9.93;5.60;;;11.20;99.90;;;;;;5058094;28;20458;-79
2022/05/14 02:24:50;;;;;;;9.30;5.73;;;11.20;99.90;;;;;;5057214;28;20471;-77
2022/05/14 02:27:17;;;;;;;6.80;4.50;;;11.20;99.90;;;;;;5058628;28;20450;-78
2022/05/14 02:29:53;;;;;;;8.13;5.00;;;11.20;99.90;;;;;;5059370;28;20449;-78
2022/05/14 02:32:22;;;;;;;7.67;4.83;;;11.20;99.90;;;;;;5072854;28;20475;-79
2022/05/14 02:34:49;;;;;;;7.80;5.50;;;11.20;99.90;;;;;;5078082;28;20486;-78
2022/05/14 02:37:18;;;;;;;7.53;5.13;;;11.20;99.90;;;;;;5078773;28;20453;-78
2022/05/14 02:39:45;;;;;;;7.67;5.70;;;11.20;99.90;;;;;;5059643;28;20449;-78
2022/05/14 02:42:12;;;;;;;11.33;5.77;;;11.20;99.90;;;;;;5057765;28;20451;-78
2022/05/14 02:44:39;;;;;;;12.80;5.80;;;11.20;99.90;;;;;;5060004;28;20487;-78
2022/05/14 02:47:06;;;;;;;8.63;5.20;;;11.20;99.90;;;;;;5058222;28;20452;-79
2022/05/14 02:49:32;;;;;;;8.77;4.90;;;11.20;99.90;;;;;;5057052;28;20464;-78
2022/05/14 02:51:59;;;;;;;8.20;5.37;;;11.20;99.90;;;;;;5057059;28;20999;-78
2022/05/14 02:54:28;;;;;;;10.93;6.27;;;11.20;99.90;;;;;;5057224;28;20476;-78
2022/05/14 02:56:56;;;;;;;7.83;5.23;;;11.20;99.90;;;;;;5061127;28;20452;-77
2022/05/14 02:59:23;;;;;;;14.97;5.37;;;11.20;99.90;;;;;;5063822;28;20529;-78
2022/05/14 03:01:49;;;;;;;9.30;5.67;;;11.20;99.90;;;;;;5057440;28;20456;-78
2022/05/14 03:04:18;;;;;;;9.50;6.00;;;11.20;99.90;;;;;;5054271;28;20494;-78
2022/05/14 03:06:44;;;;;;;9.10;5.20;;;11.20;99.90;;;;;;5052035;28;20448;-77
2022/05/14 03:09:11;;;;;;;10.83;4.87;;;11.20;99.90;;;;;;5056458;28;20451;-78
2022/05/14 03:11:41;;;;;;;8.63;5.43;;;11.10;99.90;;;;;;5061111;28;20456;-77
2022/05/14 03:14:07;;;;;;;12.83;6.00;;;11.20;99.90;;;;;;5057132;28;20469;-78
2022/05/14 03:16:34;;;;;;;8.97;5.20;;;11.20;99.90;;;;;;5056288;28;20448;-79
2022/05/14 03:19:01;;;;;;;8.53;5.40;;;11.20;99.90;;;;;;5057082;28;20828;-77
2022/05/14 03:21:28;;;;;;;8.03;5.10;;;11.20;99.90;;;;;;5057130;28;20452;-77
2022/05/14 03:23:54;;;;;;;10.37;5.20;;;11.20;99.90;;;;;;5056439;28;20496;-78
2022/05/14 03:26:21;;;;;;;8.40;5.87;;;11.30;99.90;;;;;;5064325;28;20465;-78
2022/05/14 03:28:50;;;;;;;7.53;5.03;;;11.20;99.90;;;;;;5076361;28;20485;-78
2022/05/14 03:31:17;;;;;;;10.50;5.43;;;11.20;99.90;;;;;;5056693;28;20460;-77
2022/05/14 03:33:43;;;;;;;9.43;5.10;;;11.30;99.90;;;;;;5056224;28;20472;-77
2022/05/14 03:36:11;;;;;;;8.23;5.53;;;11.30;99.90;;;;;;5056530;28;20444;-79
2022/05/14 03:38:38;;;;;;;11.00;4.80;;;11.20;99.90;;;;;;5055497;28;20453;-77
2022/05/14 03:41:06;;;;;;;7.77;5.23;;;11.20;99.90;;;;;;5054365;28;20452;-79
2022/05/14 03:43:33;;;;;;;9.07;4.43;;;11.20;99.90;;;;;;5049471;28;20514;-77
2022/05/14 03:46:01;;;;;;;10.80;5.50;;;11.30;99.90;;;;;;5048276;28;20469;-78
2022/05/14 03:48:28;;;;;;;8.20;4.63;;;11.20;99.90;;;;;;5055739;28;20483;-78
2022/05/14 03:50:55;;;;;;;6.70;3.90;;;11.30;99.90;;;;;;5054281;28;20486;-77
2022/05/14 03:53:23;;;;;;;5.60;3.80;;;11.30;99.90;;;;;;5052757;28;20445;-77
2022/05/14 03:55:50;;;;;;;8.23;3.63;;;11.30;99.90;;;;;;5050971;28;20540;-77
2022/05/14 03:58:17;;;;;;;8.50;4.60;;;11.30;99.90;;;;;;5048927;28;20841;-76
2022/05/14 04:00:44;;;;;;;9.43;4.40;;;11.40;99.90;;;;;;5051098;28;20455;-79
2022/05/14 04:03:12;;;;;;;5.47;3.87;;;11.40;99.90;;;;;;5051610;28;20780;-79
2022/05/14 04:05:39;;;;;;;8.83;4.43;;;11.40;99.90;;;;;;5050381;28;20466;-79
2022/05/14 04:08:06;;;;;;;8.40;4.17;;;11.40;99.90;;;;;;5049806;28;20453;-79
2022/05/14 04:10:33;;;;;;;6.40;4.60;;;11.40;99.90;;;;;;5053725;28;20463;-79
2022/05/14 04:13:00;;;;;;;8.30;5.10;;;11.30;99.90;;;;;;5049743;28;20467;-79
2022/05/14 04:15:28;;;;;;;10.40;5.20;;;11.40;99.90;;;;;;5053610;28;20486;-77
2022/05/14 04:17:55;;;;;;;5.70;4.40;;;11.40;99.90;;;;;;5056465;28;20440;-78
2022/05/14 04:20:24;;;;;;;7.90;3.63;;;11.40;99.90;;;;;;5053558;28;20448;-78
2022/05/14 04:22:51;;;;;;;8.30;4.00;;;11.40;99.90;;;;;;5053690;28;20472;-78
2022/05/14 04:25:18;;;;;;;11.30;4.23;;;11.50;99.90;;;;;;5053660;28;20488;-78
2022/05/14 04:27:46;;;;;;;8.83;4.03;;;11.50;99.90;;;;;;5053556;28;20512;-79
2022/05/14 04:30:15;;;;;;;9.30;3.30;;;11.50;99.90;;;;;;5052924;28;20495;-79
2022/05/14 04:32:42;;;;;;;13.53;3.83;;;11.60;99.90;;;;;;5051866;28;20472;-79
2022/05/14 04:35:09;;;;;;;5.77;3.47;;;11.70;99.90;;;;;;5052623;28;20464;-79
2022/05/14 04:37:37;;;;;;;7.70;3.27;;;11.60;99.90;;;;;;5052243;28;20811;-78
2022/05/14 04:40:05;;;;;;;6.63;3.13;;;11.70;99.90;;;;;;5052561;28;20449;-78
2022/05/14 04:42:32;;;;;;;8.97;2.60;;;11.70;99.90;;;;;;5052717;28;20506;-79
2022/05/14 04:44:59;;;;;;;7.50;3.03;;;11.80;99.90;;;;;;5052592;28;20500;-78
2022/05/14 04:47:26;;;;;;;4.67;3.47;;;11.80;99.90;;;;;;5053231;28;20492;-81
2022/05/14 04:49:53;;;;;;;7.30;3.23;;;11.80;99.90;;;;;;5057545;28;20473;-80
2022/05/14 04:52:20;;;;;;;6.00;2.80;;;11.90;99.90;;;;;;5064469;28;20450;-80
2022/05/14 04:54:49;;;;;;;6.00;3.03;;;12.00;99.90;;;;;;5061226;28;20517;-81
2022/05/14 04:57:16;;;;;;;8.53;3.17;;;12.10;99.90;;;;;;5060170;28;20454;-81
2022/05/14 04:59:43;;;;;;;4.93;2.73;;;12.20;99.90;;;;;;5061056;28;20464;-81
2022/05/14 05:04:54;;;;;;;9.50;3.30;;;12.40;99.90;;;;;;5063724;28;20483;-81
2022/05/14 05:07:21;;;;;;;6.13;3.40;;;12.40;99.90;;;;;;5058121;28;20461;-82
2022/05/14 05:09:49;;;;;;;9.60;2.93;;;12.50;99.90;;;;;;5056167;28;20457;-83
2022/05/14 05:12:16;;;;;;;4.90;2.20;;;12.50;99.90;;;;;;5055273;28;20581;-79
2022/05/14 05:14:43;;;;;;;12.95;3.78;;;12.50;99.90;;;;;;5054926;28;20444;-82
2022/05/14 05:17:10;;;;;;;4.00;2.83;;;12.50;99.90;;;;;;5054050;28;20700;-82
2022/05/14 05:19:36;;;;;;;8.13;2.70;;;12.60;99.90;;;;;;5094817;22;20503;-80
2022/05/14 05:22:04;;;;;;;9.20;3.00;;;12.70;99.90;;;;;;5088400;28;20557;-80
2022/05/14 05:24:31;;;;;;;10.83;3.17;;;12.80;99.90;;;;;;5076079;28;20476;-79
2022/05/14 05:26:59;;;;;;;6.50;3.00;;;12.80;99.90;;;;;;5089563;28;20451;-81
2022/05/14 05:29:26;;;;;;;7.27;3.10;;;12.90;99.90;;;;;;5096164;28;20478;-80
2022/05/14 05:31:53;;;;;;;6.80;3.20;;;13.00;99.90;;;;;;5099477;28;20981;-80
2022/05/14 05:34:20;;;;;;;7.90;3.27;;;13.00;99.90;;;;;;5081782;28;20448;-82
2022/05/14 05:36:46;;;;;;;9.40;3.60;;;13.00;99.90;;;;;;5097366;28;20508;-81
2022/05/14 05:39:13;;;;;;;5.40;3.60;;;13.00;99.90;;;;;;5096646;28;20466;-80
2022/05/14 05:41:40;;;;;;;11.47;4.63;;;13.10;99.90;;;;;;5097263;28;20450;-83
2022/05/14 05:44:08;;;;;;;9.20;4.30;;;13.20;99.90;;;;;;5097099;28;20499;-81
2022/05/14 05:46:36;;;;;;;11.13;5.13;;;13.20;99.90;;;;;;5100201;28;20892;-82
2022/05/14 05:49:04;;;;;;;13.60;5.07;;;13.20;99.90;;;;;;5099976;28;20832;-80
2022/05/14 05:51:32;;;;;;;9.30;5.50;;;13.20;99.90;;;;;;5100895;28;20551;-81
2022/05/14 05:56:56;;;;;;;10.40;6.23;;;13.30;99.90;;;;;;5096956;28;20440;-79
2022/05/14 05:59:25;;;;;;;12.13;6.57;;;13.30;99.90;;;;;;5095097;28;20468;-78
2022/05/14 06:01:53;;;;;;;11.40;5.97;;;13.40;99.90;;;;;;5096559;28;20448;-78
2022/05/14 06:04:20;;;;;;;7.97;4.90;;;13.40;99.90;;;;;;5095896;28;20488;-79
2022/05/14 06:06:47;;;;;;;10.87;5.50;;;13.50;99.90;;;;;;5096245;28;20457;-80
2022/05/14 06:09:16;;;;;;;8.93;5.13;;;13.50;99.90;;;;;;5096356;28;20478;-81
2022/05/14 06:11:44;;;;;;;8.60;5.30;;;13.50;99.90;;;;;;5096892;28;20534;-80
2022/05/14 06:14:12;;;;;;;8.50;4.80;;;13.50;99.90;;;;;;5097202;28;20478;-81
2022/05/14 06:16:40;;;;;;;8.17;5.13;;;13.60;99.90;;;;;;5100488;28;20453;-81
2022/05/14 06:19:09;;;;;;;15.97;6.70;;;13.60;99.90;;;;;;5097474;28;20449;-81
2022/05/14 06:21:37;;;;;;;9.60;5.67;;;13.70;99.90;;;;;;5097151;28;20449;-83
2022/05/14 06:24:04;;;;;;;11.57;5.87;;;13.70;99.90;;;;;;5091268;28;20562;-80
2022/05/14 06:26:31;;;;;;;8.83;5.37;;;13.80;99.90;;;;;;5086984;28;20455;-81
2022/05/14 06:28:59;;;;;;;11.47;5.97;;;13.80;99.90;;;;;;5084882;28;20449;-81
2022/05/14 06:31:26;;;;;;;15.80;5.93;;;13.90;99.90;;;;;;5087282;28;20471;-80
2022/05/14 06:33:54;;;;;;;11.77;6.40;;;14.00;99.90;;;;;;5085145;28;20459;-80
2022/05/14 06:36:24;;;;;;;10.30;4.97;;;14.10;99.90;;;;;;5084776;28;20548;-81
2022/05/14 06:38:51;;;;;;;8.10;4.30;;;14.20;99.90;;;;;;5087845;28;20451;-80
2022/05/14 06:41:17;;;;;;;9.30;4.33;;;14.20;99.90;;;;;;5084774;28;21014;-80
2022/05/14 06:43:46;;;;;;;11.43;5.50;;;14.30;99.90;;;;;;5088269;28;20445;-81
2022/05/14 06:46:13;;;;;;;18.47;7.07;;;14.40;99.90;;;;;;5088527;28;20447;-81
2022/05/14 06:48:40;;;;;;;13.07;8.20;;;14.40;99.90;;;;;;5097315;28;20454;-81
2022/05/14 06:51:12;;;;;;;10.00;6.57;;;14.40;99.90;;;;;;5101425;28;20536;-82
2022/05/14 06:53:41;;;;;;;12.77;5.80;;;14.50;99.90;;;;;;5096956;28;20439;-80
2022/05/14 06:56:09;;;;;;;9.53;5.47;;;14.60;99.90;;;;;;5097549;28;20444;-81
2022/05/14 06:58:40;;;;;;;10.80;4.57;;;14.60;99.90;;;;;;5097410;28;20447;-81
2022/05/14 07:01:08;;;;;;;10.93;5.13;;;14.70;99.90;;;;;;5099607;28;20549;-80
2022/05/14 07:06:44;;;;;;;10.33;4.80;;;14.80;99.90;;;;;;5079973;28;20517;-80
2022/05/14 07:09:14;;;;;;;15.30;5.37;;;15.00;99.90;;;;;;5094397;28;20475;-80
2022/05/14 07:11:42;;;;;;;8.20;5.30;;;14.90;99.90;;;;;;5087285;28;21017;-79
2022/05/14 07:14:11;;;;;;;10.63;4.70;;;15.00;99.90;;;;;;5076782;28;20485;-80
2022/05/14 07:16:38;;;;;;;10.33;5.97;;;15.10;99.90;;;;;;5076847;28;20460;-81
2022/05/14 07:19:06;;;;;;;10.37;5.27;;;15.20;99.90;;;;;;5076653;28;20459;-80
2022/05/14 07:21:36;;;;;;;12.33;5.10;;;15.30;99.90;;;;;;5099770;28;20515;-82
2022/05/14 07:24:05;;;;;;;11.03;4.50;;;15.40;99.90;;;;;;5099452;28;20446;-82
2022/05/14 07:26:34;;;;;;;16.33;5.53;;;15.50;99.90;;;;;;5082941;28;20959;-81
2022/05/14 07:29:01;;;;;;;17.00;5.17;;;15.60;99.90;;;;;;5091819;28;20501;-82
2022/05/14 07:31:28;;;;;;;7.47;4.10;;;15.70;99.90;;;;;;5088605;28;20461;-81
2022/05/14 07:33:55;;;;;;;8.90;5.10;;;15.80;99.90;;;;;;5092274;28;20469;-82
2022/05/14 07:36:24;;;;;;;10.53;5.23;;;15.80;99.90;;;;;;5086259;28;20452;-82
2022/05/14 07:38:54;;;;;;;13.30;6.03;;;15.90;99.90;;;;;;5089647;28;20478;-81
2022/05/14 07:41:21;;;;;;;12.80;6.00;;;15.90;99.90;;;;;;5089559;28;20488;-81
2022/05/14 07:43:50;;;;;;;15.50;6.53;;;16.00;99.90;;;;;;5088841;28;20830;-81
2022/05/14 07:46:23;;;;;;;9.33;5.60;;;16.10;99.90;;;;;;5088737;28;20487;-82
2022/05/14 07:48:50;;;;;;;15.03;5.90;;;16.20;99.90;;;;;;5089176;28;20549;-81
2022/05/14 07:51:18;;;;;;;9.53;4.80;;;16.20;99.90;;;;;;5091769;28;20561;-82
2022/05/14 07:53:44;;;;;;;8.33;4.67;;;16.30;99.90;;;;;;5091043;28;20450;-80
2022/05/14 07:56:13;;;;;;;10.10;4.97;;;16.40;99.90;;;;;;5097203;28;20449;-81
2022/05/14 07:58:42;;;;;;;15.80;5.93;;;16.50;99.90;;;;;;5089974;28;20544;-82
2022/05/14 08:01:09;;;;;;;12.30;5.00;;;16.70;99.90;;;;;;5083497;28;20471;-82
2022/05/14 08:03:36;;;;;;;10.60;5.40;;;16.80;99.90;;;;;;5095106;28;20453;-83
2022/05/14 08:06:04;;;;;;;11.87;5.07;;;16.90;99.90;;;;;;5082433;28;20525;-81
2022/05/14 08:08:30;;;;;;;6.67;4.83;;;17.10;99.90;;;;;;5076919;28;20500;-81
2022/05/14 08:10:57;;;;;;;16.17;5.93;;;17.20;99.90;;;;;;5077344;28;20558;-82
2022/05/14 08:13:26;;;;;;;12.47;4.60;;;17.00;99.90;;;;;;5076347;28;20462;-82
2022/05/14 08:15:54;;;;;;;12.17;6.20;;;17.30;99.90;;;;;;5076760;28;20922;-81
2022/05/14 08:18:21;;;;;;;9.80;5.40;;;17.50;99.90;;;;;;5084492;28;20447;-81
2022/05/14 08:20:51;;;;;;;13.93;6.43;;;17.80;99.90;;;;;;5097448;28;20511;-82
2022/05/14 08:26:03;;;;;;;9.53;4.00;;;18.10;99.90;;;;;;5097497;28;21018;-84
2022/05/14 08:28:32;;;;;;;14.13;4.80;;;18.30;99.90;;;;;;5096452;28;20926;-82
2022/05/14 08:31:00;;;;;;;9.40;3.97;;;18.60;99.90;;;;;;5099304;28;20474;-81
2022/05/14 08:33:27;;;;;;;11.87;4.57;;;18.60;99.90;;;;;;5096329;28;20506;-81
2022/05/14 08:35:54;;;;;;;10.23;4.50;;;18.70;99.90;;;;;;5095918;28;20451;-81
2022/05/14 08:38:23;;;;;;;7.50;3.20;;;19.00;99.90;;;;;;5096141;28;20994;-83
2022/05/14 08:40:55;;;;;;;5.97;2.80;;;19.50;99.90;;;;;;5095629;28;20477;-83
2022/05/14 08:43:27;;;;;;;9.90;4.03;;;20.00;99.90;;;;;;5096076;28;20949;-81
2022/05/14 08:45:55;;;;;;;10.07;3.97;;;20.60;99.90;;;;;;5099049;28;20485;-80
2022/05/14 08:48:31;;;;;;;9.83;4.50;;;21.00;99.90;;;;;;5097832;28;20450;-82
2022/05/14 08:51:03;;;;;;;13.23;4.57;;;21.60;99.90;;;;;;5093843;28;20488;-83
2022/05/14 08:53:31;;;;;;;11.27;3.50;;;22.30;99.90;;;;;;5096664;28;20462;-84
2022/05/14 08:56:12;;;;;;;10.93;3.80;;;23.00;99.90;;;;;;5097462;28;20446;-83
2022/05/14 08:58:55;;;;;;;7.63;3.27;;;24.00;99.90;;;;;;5097295;28;20460;-82
2022/05/14 09:01:26;;;;;;;7.00;3.33;;;24.70;99.90;;;;;;5086728;28;20458;-83
2022/05/14 09:03:53;;;;;;;8.10;2.90;;;25.50;99.90;;;;;;5077566;28;20454;-81
2022/05/14 09:06:20;;;;;;;9.37;3.10;;;25.90;99.90;;;;;;5076811;28;20482;-84
2022/05/14 09:08:48;;;;;;;7.57;3.50;;;26.70;99.90;;;;;;5095367;28;20478;-83
2022/05/14 09:11:23;;;;;;;7.63;3.03;;;27.60;99.90;;;;;;5101552;28;20458;-83
2022/05/14 09:13:53;;;;;;;8.53;3.20;;;28.80;99.90;;;;;;5099810;28;20473;-83
2022/05/14 09:16:25;;;;;;;8.10;3.47;;;29.10;99.90;;;;;;5100208;28;20543;-82
2022/05/14 09:18:53;;;;;;;7.67;3.10;;;29.40;96.90;;;;;;5099375;28;20509;-80
2022/05/14 09:21:23;;;;;;;8.50;3.23;;;29.80;94.30;;;;;;5102345;28;20488;-80
2022/05/14 09:23:53;;;;;;;5.37;2.40;;;29.80;91.40;;;;;;5098750;28;20900;-80
2022/05/14 09:26:25;;;;;;;6.20;3.20;;;31.30;93.00;;;;;;5101908;28;20490;-79
2022/05/14 09:28:54;;;;;;;6.17;3.00;;;32.20;85.70;;;;;;5100065;28;20831;-79
2022/05/14 09:31:29;;;;;;;6.63;3.13;;;32.60;82.70;;;;;;5100004;28;20446;-80
2022/05/14 09:34:06;;;;;;;5.83;2.90;;;33.20;83.10;;;;;;5099739;28;20441;-80
2022/05/14 09:36:35;;;;;;;6.67;3.50;;;33.70;72.70;;;;;;5099609;28;20819;-79
2022/05/14 09:39:07;;;;;;;5.67;2.60;;;34.60;68.60;;;;;;5098644;28;20521;-80
2022/05/14 09:41:41;;;;;;;9.47;3.40;;;35.10;67.10;;;;;;5098558;28;20849;-81
2022/05/14 09:44:16;;;;;;;13.00;3.23;;;35.30;65.60;;;;;;5099929;28;20457;-81
2022/05/14 09:46:44;;;;;;;5.73;2.80;;;35.20;63.50;;;;;;5099497;28;20492;-79
2022/05/14 09:49:21;;;;;;;11.53;3.30;;;35.30;62.50;;;;;;5097575;28;20568;-79
2022/05/14 09:51:53;;;;;;;6.73;2.43;;;35.40;61.60;;;;;;5099036;28;20453;-80
2022/05/14 09:54:23;;;;;;;6.00;2.70;;;35.60;59.30;;;;;;5098512;28;20427;-80
2022/05/14 09:57:25;;;;;;;12.67;3.37;;;36.00;58.40;;;;;;5094034;28;20463;-81
2022/05/14 10:00:07;;;;;;;12.07;3.23;;;36.00;56.40;;;;;;5077453;28;20471;-80
2022/05/14 10:02:52;;;;;;;8.70;3.63;;;36.60;59.20;;;;;;5076557;28;21049;-80
2022/05/14 10:05:34;;;;;;;9.67;2.80;;;35.90;56.40;;;;;;5076448;28;20577;-78
2022/05/14 10:08:10;;;;;;;7.20;3.07;;;36.50;56.50;;;;;;5076156;28;20958;-80
2022/05/14 10:10:48;;;;;;;11.73;3.10;;;37.30;54.10;;;;;;5076906;28;20516;-81
2022/05/14 10:13:21;;;;;;;11.43;2.87;;;38.10;55.00;;;;;;5080789;28;20536;-80
2022/05/14 10:15:57;;;;;;;7.40;2.90;;;38.20;52.40;;;;;;5097059;28;20457;-81
2022/05/14 10:18:43;;;;;;;6.53;3.27;;;37.60;51.60;;;;;;5097328;28;20485;-81
2022/05/14 10:21:16;;;;;;;8.43;2.80;;;38.00;51.90;;;;;;5098315;28;21013;-82
2022/05/14 10:26:57;;;;;;;8.80;2.80;;;37.00;53.30;;;;;;5101803;28;20492;-82
2022/05/14 10:29:36;;;;;;;8.23;2.77;;;36.70;53.00;;;;;;5102017;28;20553;-82
2022/05/14 10:32:05;;;;;;;6.23;2.40;;;36.10;53.40;;;;;;5083639;28;20451;-82
2022/05/14 10:34:42;;;;;;;7.60;2.73;;;35.70;55.40;;;;;;5081473;28;20454;-82
2022/05/14 10:37:18;;;;;;;7.50;3.10;;;35.30;52.10;;;;;;5083394;28;20478;-83
2022/05/14 10:39:53;;;;;;;6.80;2.50;;;35.30;53.60;;;;;;5081163;28;20506;-82
2022/05/14 10:42:30;;;;;;;12.93;3.80;;;34.50;55.80;;;;;;5085149;28;20481;-82
2022/05/14 10:45:03;;;;;;;6.97;2.83;;;34.30;54.30;;;;;;5094420;28;20477;-81
2022/05/14 10:47:31;;;;;;;10.23;3.80;;;33.30;54.00;;;;;;5099894;28;20704;-81
2022/05/14 10:50:05;;;;;;;7.37;2.67;;;32.90;56.90;;;;;;5099879;28;21017;-82
2022/05/14 10:52:32;;;;;;;5.33;2.67;;;35.00;55.30;;;;;;5101090;28;20458;-82
2022/05/14 10:54:59;;;;;;;9.77;2.87;;;37.40;54.20;;;;;;5101083;28;20544;-82
2022/05/14 10:57:40;;;;;;;9.10;3.13;;;37.90;51.60;;;;;;5102208;28;20441;-83
2022/05/14 11:00:20;;;;;;;6.60;2.60;;;37.50;51.30;;;;;;5101883;28;20879;-82
2022/05/14 11:02:56;;;;;;;5.97;2.40;;;38.90;51.40;;;;;;5100635;28;20915;-82
2022/05/14 11:05:34;;;;;;;8.00;3.50;;;38.10;50.40;;;;;;5100953;28;20485;-83
2022/05/14 11:08:13;;;;;;;4.97;2.30;;;35.50;49.40;;;;;;5101388;28;20438;-82
2022/05/14 11:10:41;;;;;;;6.63;3.00;;;33.40;52.80;;;;;;5100481;28;20827;-82
2022/05/14 11:13:16;;;;;;;8.00;2.47;;;34.50;55.90;;;;;;5101094;28;20960;-82
2022/05/14 11:15:44;;;;;;;6.67;3.00;;;36.10;54.40;;;;;;5101253;28;21088;-82
2022/05/14 11:18:14;;;;;;;5.97;2.33;;;37.40;53.20;;;;;;5100817;28;20458;-81
2022/05/14 11:23:16;;;;;;;7.30;2.77;;;40.10;51.00;;;;;;5132072;22;20512;-82
2022/05/14 11:25:43;;;;;;;8.57;2.80;;;38.50;48.70;;;;;;5099047;28;21001;-82
2022/05/14 11:28:13;;;;;;;9.17;2.33;;;38.80;51.40;;;;;;5100242;28;20537;-82
2022/05/14 11:30:42;;;;;;;5.23;2.50;;;39.40;48.20;;;;;;5079536;28;20537;-82
2022/05/14 11:33:20;;;;;;;5.37;2.70;;;37.70;50.10;;;;;;5078475;28;21010;-81
2022/05/14 11:35:50;;;;;;;8.50;3.13;;;36.60;49.40;;;;;;5078470;28;20455;-83
2022/05/14 11:38:32;;;;;;;10.00;3.20;;;34.50;51.70;;;;;;5078445;28;20555;-82
2022/05/14 11:41:01;;;;;;;5.10;2.57;;;32.40;53.90;;;;;;5078196;28;20447;-83
2022/05/14 11:43:30;;;;;;;6.60;2.53;;;33.00;55.70;;;;;;5077610;28;20540;-82
2022/05/14 11:46:13;;;;;;;7.07;2.43;;;35.30;55.40;;;;;;5077413;28;20491;-81
2022/05/14 11:48:46;;;;;;;8.37;3.73;;;35.30;51.60;;;;;;5077072;28;20446;-81
2022/05/14 11:51:19;;;;;;;7.27;2.87;;;33.70;53.10;;;;;;5078345;28;20467;-83
2022/05/14 11:53:53;;;;;;;7.27;2.93;;;35.00;52.80;;;;;;5077435;28;20459;-83
2022/05/14 11:56:28;;;;;;;6.67;2.90;;;36.80;52.40;;;;;;5077858;28;20447;-82
2022/05/14 11:58:59;;;;;;;6.23;3.20;;;38.00;51.50;;;;;;5076884;28;20534;-82
2022/05/14 12:01:34;;;;;;;6.17;2.73;;;39.40;47.60;;;;;;5076382;28;20459;-82
2022/05/14 12:04:03;;;;;;;8.40;2.87;;;40.30;48.40;;;;;;5074867;28;20446;-81
2022/05/14 12:06:49;;;;;;;5.43;3.17;;;41.00;47.90;;;;;;5076924;28;20574;-81
2022/05/14 12:09:39;;;;;;;7.37;3.30;;;40.80;46.00;;;;;;5075923;28;20450;-82
2022/05/14 12:12:12;;;;;;;6.80;3.80;;;39.70;46.50;;;;;;5073999;28;20986;-82
2022/05/14 12:14:40;;;;;;;8.27;3.93;;;40.40;46.10;;;;;;5074031;28;20454;-83
2022/05/14 12:17:14;;;;;;;7.77;4.27;;;40.60;45.10;;;;;;5076846;28;20469;-82
2022/05/14 12:19:43;;;;;;;6.60;3.73;;;40.50;43.60;;;;;;5074218;28;20950;-81
2022/05/14 12:22:21;;;;;;;8.37;4.53;;;40.70;45.00;;;;;;5075986;28;20544;-82
2022/05/14 12:24:58;;;;;;;6.87;3.50;;;40.70;43.70;;;;;;5075552;28;20447;-83
2022/05/14 12:27:27;;;;;;;5.83;3.50;;;40.00;44.00;;;;;;5076497;28;20497;-82
2022/05/14 12:29:56;;;;;;;7.70;4.43;;;39.10;45.10;;;;;;5074659;28;20465;-81
2022/05/14 12:35:19;;;;;;;10.40;3.70;;;38.40;44.20;;;;;;5073163;28;20491;-80
2022/05/14 12:37:47;;;;;;;8.20;3.90;;;35.90;46.10;;;;;;5072076;28;20529;-81
2022/05/14 12:40:26;;;;;;;9.03;3.60;;;33.40;48.50;;;;;;5075528;28;20526;-81
2022/05/14 12:42:54;;;;;;;7.93;4.50;;;32.00;49.90;;;;;;5073610;28;20467;-81
2022/05/14 12:45:32;;;;;;;10.70;4.63;;;31.00;50.60;;;;;;5074330;28;20540;-82
2022/05/14 12:48:00;;;;;;;5.87;3.43;;;31.00;53.60;;;;;;5076536;28;20453;-81
2022/05/14 12:50:30;;;;;;;8.43;3.60;;;33.70;52.60;;;;;;5076429;28;20976;-81
2022/05/14 12:53:00;;;;;;;8.43;3.20;;;33.90;50.40;;;;;;5076304;28;20470;-83
2022/05/14 12:55:31;;;;;;;7.10;3.40;;;34.70;51.70;;;;;;5076299;28;20445;-83
2022/05/14 12:58:01;;;;;;;12.00;3.80;;;35.10;49.40;;;;;;5076895;28;20463;-81
2022/05/14 13:00:30;;;;;;;8.13;3.60;;;33.70;47.60;;;;;;5076062;28;20451;-80
2022/05/14 13:03:01;;;;;;;6.70;3.10;;;32.50;48.80;;;;;;5075559;28;21062;-82
2022/05/14 13:05:33;;;;;;;8.07;4.37;;;32.60;52.80;;;;;;5074246;28;20473;-82
2022/05/14 13:08:07;;;;;;;6.17;3.07;;;34.90;50.90;;;;;;5074014;28;20493;-82
2022/05/14 13:10:36;;;;;;;7.20;3.17;;;36.70;51.00;;;;;;5072794;28;20458;-81
2022/05/14 13:13:06;;;;;;;6.30;3.43;;;38.50;47.90;;;;;;5075915;28;20515;-81
2022/05/14 13:15:34;;;;;;;6.27;3.80;;;38.80;47.90;;;;;;5077185;28;20466;-81
2022/05/14 13:18:12;;;;;;;7.07;3.47;;;39.70;45.90;;;;;;5076318;28;20447;-81